logo
Search for airport 
image banner adimage banner adimage banner ad
image banner ad

FA0344 - Despatch Drive Inn Helistop

Located in , South Africa

ICAO - , IATA -

Data provided by Airmate  

General information

Coordinates: S33°48'21" E25°26'15"
Elevation is 200 feet MSL.
 
View others Airports in Eastern Cape

Operational data

Special qualification required
Current time UTC:
Current local time:
METAR: FAPE 180100Z 26005KT CAVOK 14/12 Q1023 NOSIG
View NOTAMs / SUP AIP / TFR affecting this airport [VIEW]
Communications frequencies: [VIEW]

Runways:

Airport contact information

Address: South Africa

Satellite view of FA0344